weather.gov     
National Weather Service

Terminal Aerodrome Forecast
NWS Homepage
This page is being discontinued on March 12, 2014.
The same data is available at this site. Please update your bookmarks.
Thank you, and we apologize for the inconvenience.
Please send an email to SR-SRH.Webmaster@noaa.gov with any concerns.


Current Version
Previous Version:    01  02  03  04  05  06  07  08  09  10  11  12  13  14  15  16  17  18  19  20  21  22  23  24  25  26  27  28  29  30  
   31  32  33  34  
[Printable]
550
FTUS43 KGRB 240900 AAA
TAFAUW
TAF AMD
KAUW 240904Z 2409/2506 12006KT P6SM SCT030 OVC050
     FM241000 12009KT 6SM -SHRA SCT025 OVC035 WS020/14030KT
     FM241400 11016G25KT 3SM -RA BR BKN012 OVC020 WS020/14040KT
     FM241900 12012G20KT 2SM -RA BR BKN007 OVC012 WS020/15045KT
     FM250100 16007KT 3SM -RA BR BKN007 OVC012 WS020/17045KT=


U.S. Dept. of Commerce
NOAA National Weather Service
1325 East West Highway
Silver Spring, MD 20910
E-mail: w-nws.webmaster@noaa.gov
Page last modified: May 16, 2007
NATIONAL WEATHER SERVICE: for Safety, for Work, for Fun - FOR LIFE